sensor_id;sensor_type;location;lat;lon;timestamp;P1;durP1;ratioP1;P2;durP2;ratioP2
16480;SDS011;44634;54.110;12.138;2023-06-22T00:00:26;8.23;;;7.43;;
16480;SDS011;44634;54.110;12.138;2023-06-22T00:02:55;8.93;;;7.90;;
16480;SDS011;44634;54.110;12.138;2023-06-22T00:05:23;8.23;;;7.40;;
16480;SDS011;44634;54.110;12.138;2023-06-22T00:07:50;8.23;;;7.53;;
16480;SDS011;44634;54.110;12.138;2023-06-22T00:10:18;8.07;;;7.37;;
16480;SDS011;44634;54.110;12.138;2023-06-22T00:12:46;7.40;;;6.70;;
16480;SDS011;44634;54.110;12.138;2023-06-22T00:15:14;7.03;;;6.43;;
16480;SDS011;44634;54.110;12.138;2023-06-22T00:17:43;7.37;;;6.67;;
16480;SDS011;44634;54.110;12.138;2023-06-22T00:20:11;8.00;;;6.90;;
16480;SDS011;44634;54.110;12.138;2023-06-22T00:22:40;7.37;;;6.77;;
16480;SDS011;44634;54.110;12.138;2023-06-22T00:25:09;9.27;;;7.87;;
16480;SDS011;44634;54.110;12.138;2023-06-22T00:27:37;8.60;;;7.77;;
16480;SDS011;44634;54.110;12.138;2023-06-22T00:30:05;8.53;;;7.67;;
16480;SDS011;44634;54.110;12.138;2023-06-22T00:32:34;7.87;;;7.17;;
16480;SDS011;44634;54.110;12.138;2023-06-22T00:35:03;9.23;;;7.60;;
16480;SDS011;44634;54.110;12.138;2023-06-22T00:37:31;6.50;;;5.90;;
16480;SDS011;44634;54.110;12.138;2023-06-22T00:39:59;6.90;;;6.30;;
16480;SDS011;44634;54.110;12.138;2023-06-22T00:42:27;10.03;;;7.73;;
16480;SDS011;44634;54.110;12.138;2023-06-22T00:44:55;8.63;;;7.80;;
16480;SDS011;44634;54.110;12.138;2023-06-22T00:47:22;8.13;;;7.43;;
16480;SDS011;44634;54.110;12.138;2023-06-22T00:49:51;8.57;;;7.87;;
16480;SDS011;44634;54.110;12.138;2023-06-22T00:52:20;8.50;;;7.80;;
16480;SDS011;44634;54.110;12.138;2023-06-22T00:54:55;9.33;;;8.53;;
16480;SDS011;44634;54.110;12.138;2023-06-22T00:57:23;8.90;;;8.10;;
16480;SDS011;44634;54.110;12.138;2023-06-22T00:59:54;9.87;;;9.00;;
16480;SDS011;44634;54.110;12.138;2023-06-22T01:02:22;8.60;;;7.83;;
16480;SDS011;44634;54.110;12.138;2023-06-22T01:04:49;9.80;;;8.60;;
16480;SDS011;44634;54.110;12.138;2023-06-22T01:07:20;8.73;;;8.03;;
16480;SDS011;44634;54.110;12.138;2023-06-22T01:09:57;8.80;;;7.93;;
16480;SDS011;44634;54.110;12.138;2023-06-22T01:12:30;8.73;;;7.93;;
16480;SDS011;44634;54.110;12.138;2023-06-22T01:15:02;8.67;;;7.97;;
16480;SDS011;44634;54.110;12.138;2023-06-22T01:17:35;8.37;;;7.50;;
16480;SDS011;44634;54.110;12.138;2023-06-22T01:20:07;9.30;;;8.43;;
16480;SDS011;44634;54.110;12.138;2023-06-22T01:22:43;9.37;;;7.87;;
16480;SDS011;44634;54.110;12.138;2023-06-22T01:25:25;9.03;;;8.27;;
16480;SDS011;44634;54.110;12.138;2023-06-22T01:28:02;9.50;;;8.70;;
16480;SDS011;44634;54.110;12.138;2023-06-22T01:30:34;9.97;;;8.97;;
16480;SDS011;44634;54.110;12.138;2023-06-22T01:33:03;10.43;;;8.93;;
16480;SDS011;44634;54.110;12.138;2023-06-22T01:35:33;10.27;;;9.40;;
16480;SDS011;44634;54.110;12.138;2023-06-22T01:38:01;11.03;;;8.87;;
16480;SDS011;44634;54.110;12.138;2023-06-22T01:40:29;8.83;;;7.83;;
16480;SDS011;44634;54.110;12.138;2023-06-22T01:42:59;8.03;;;7.30;;
16480;SDS011;44634;54.110;12.138;2023-06-22T01:45:28;9.27;;;8.27;;
16480;SDS011;44634;54.110;12.138;2023-06-22T01:47:57;8.60;;;7.90;;
16480;SDS011;44634;54.110;12.138;2023-06-22T01:50:26;8.70;;;7.80;;
16480;SDS011;44634;54.110;12.138;2023-06-22T01:52:54;7.97;;;7.33;;
16480;SDS011;44634;54.110;12.138;2023-06-22T01:55:22;8.50;;;7.63;;
16480;SDS011;44634;54.110;12.138;2023-06-22T01:57:50;9.10;;;8.27;;
16480;SDS011;44634;54.110;12.138;2023-06-22T02:00:18;8.43;;;7.63;;
16480;SDS011;44634;54.110;12.138;2023-06-22T02:02:52;8.77;;;7.97;;
16480;SDS011;44634;54.110;12.138;2023-06-22T02:05:25;9.20;;;8.40;;
16480;SDS011;44634;54.110;12.138;2023-06-22T02:07:56;8.67;;;7.90;;
16480;SDS011;44634;54.110;12.138;2023-06-22T02:10:29;9.40;;;8.60;;
16480;SDS011;44634;54.110;12.138;2023-06-22T02:12:59;8.73;;;8.03;;
16480;SDS011;44634;54.110;12.138;2023-06-22T02:15:30;8.50;;;7.70;;
16480;SDS011;44634;54.110;12.138;2023-06-22T02:17:58;8.50;;;7.80;;
16480;SDS011;44634;54.110;12.138;2023-06-22T02:20:28;8.73;;;8.03;;
16480;SDS011;44634;54.110;12.138;2023-06-22T02:22:56;8.80;;;8.03;;
16480;SDS011;44634;54.110;12.138;2023-06-22T02:25:24;8.07;;;7.47;;
16480;SDS011;44634;54.110;12.138;2023-06-22T02:27:52;7.80;;;7.20;;
16480;SDS011;44634;54.110;12.138;2023-06-22T02:30:19;8.67;;;7.87;;
16480;SDS011;44634;54.110;12.138;2023-06-22T02:32:47;8.43;;;7.73;;
16480;SDS011;44634;54.110;12.138;2023-06-22T02:35:15;8.70;;;7.80;;
16480;SDS011;44634;54.110;12.138;2023-06-22T02:37:44;8.60;;;7.87;;
16480;SDS011;44634;54.110;12.138;2023-06-22T02:40:13;7.73;;;6.80;;
16480;SDS011;44634;54.110;12.138;2023-06-22T02:42:40;7.97;;;7.17;;
16480;SDS011;44634;54.110;12.138;2023-06-22T02:45:08;8.27;;;7.47;;
16480;SDS011;44634;54.110;12.138;2023-06-22T02:47:37;8.57;;;7.80;;
16480;SDS011;44634;54.110;12.138;2023-06-22T02:50:05;8.50;;;7.27;;
16480;SDS011;44634;54.110;12.138;2023-06-22T02:52:33;8.30;;;7.50;;
16480;SDS011;44634;54.110;12.138;2023-06-22T02:55:02;7.97;;;7.23;;
16480;SDS011;44634;54.110;12.138;2023-06-22T02:57:30;8.17;;;7.40;;
16480;SDS011;44634;54.110;12.138;2023-06-22T02:59:58;7.30;;;6.80;;
16480;SDS011;44634;54.110;12.138;2023-06-22T03:02:26;9.03;;;8.13;;
16480;SDS011;44634;54.110;12.138;2023-06-22T03:04:54;9.07;;;8.17;;
16480;SDS011;44634;54.110;12.138;2023-06-22T03:07:22;9.30;;;8.37;;
16480;SDS011;44634;54.110;12.138;2023-06-22T03:09:49;9.23;;;8.43;;
16480;SDS011;44634;54.110;12.138;2023-06-22T03:12:19;9.57;;;8.30;;
16480;SDS011;44634;54.110;12.138;2023-06-22T03:14:46;9.10;;;8.10;;
16480;SDS011;44634;54.110;12.138;2023-06-22T03:17:14;8.90;;;8.20;;
16480;SDS011;44634;54.110;12.138;2023-06-22T03:19:42;9.67;;;8.80;;
16480;SDS011;44634;54.110;12.138;2023-06-22T03:22:10;8.57;;;7.87;;
16480;SDS011;44634;54.110;12.138;2023-06-22T03:24:39;9.30;;;8.50;;
16480;SDS011;44634;54.110;12.138;2023-06-22T03:27:07;9.03;;;8.27;;
16480;SDS011;44634;54.110;12.138;2023-06-22T03:29:36;8.37;;;7.57;;
16480;SDS011;44634;54.110;12.138;2023-06-22T03:32:04;9.57;;;8.73;;
16480;SDS011;44634;54.110;12.138;2023-06-22T03:34:33;8.97;;;8.17;;
16480;SDS011;44634;54.110;12.138;2023-06-22T03:37:01;8.10;;;7.40;;
16480;SDS011;44634;54.110;12.138;2023-06-22T03:39:29;8.60;;;7.80;;
16480;SDS011;44634;54.110;12.138;2023-06-22T03:41:57;8.00;;;7.23;;
16480;SDS011;44634;54.110;12.138;2023-06-22T03:44:25;7.93;;;7.33;;
16480;SDS011;44634;54.110;12.138;2023-06-22T03:46:54;9.80;;;8.07;;
16480;SDS011;44634;54.110;12.138;2023-06-22T03:49:22;8.83;;;7.97;;
16480;SDS011;44634;54.110;12.138;2023-06-22T03:51:50;7.93;;;7.30;;
16480;SDS011;44634;54.110;12.138;2023-06-22T03:54:18;8.63;;;7.93;;
16480;SDS011;44634;54.110;12.138;2023-06-22T03:56:45;9.07;;;8.07;;
16480;SDS011;44634;54.110;12.138;2023-06-22T03:59:13;9.67;;;8.70;;
16480;SDS011;44634;54.110;12.138;2023-06-22T04:01:41;8.67;;;7.97;;
16480;SDS011;44634;54.110;12.138;2023-06-22T04:04:10;8.80;;;8.00;;
16480;SDS011;44634;54.110;12.138;2023-06-22T04:06:39;8.63;;;7.83;;
16480;SDS011;44634;54.110;12.138;2023-06-22T04:09:07;9.20;;;8.40;;
16480;SDS011;44634;54.110;12.138;2023-06-22T04:11:34;9.93;;;8.70;;
16480;SDS011;44634;54.110;12.138;2023-06-22T04:14:02;9.80;;;8.83;;
16480;SDS011;44634;54.110;12.138;2023-06-22T04:16:31;10.43;;;9.43;;
16480;SDS011;44634;54.110;12.138;2023-06-22T04:18:59;9.93;;;9.00;;
16480;SDS011;44634;54.110;12.138;2023-06-22T04:21:28;10.47;;;9.53;;
16480;SDS011;44634;54.110;12.138;2023-06-22T04:23:56;9.90;;;8.97;;
16480;SDS011;44634;54.110;12.138;2023-06-22T04:26:24;9.77;;;8.80;;
16480;SDS011;44634;54.110;12.138;2023-06-22T04:28:52;9.97;;;9.07;;
16480;SDS011;44634;54.110;12.138;2023-06-22T04:31:22;11.63;;;10.53;;
16480;SDS011;44634;54.110;12.138;2023-06-22T04:33:59;11.00;;;9.90;;
16480;SDS011;44634;54.110;12.138;2023-06-22T04:36:35;10.63;;;9.73;;
16480;SDS011;44634;54.110;12.138;2023-06-22T04:39:06;10.43;;;9.33;;
16480;SDS011;44634;54.110;12.138;2023-06-22T04:41:35;12.00;;;9.93;;
16480;SDS011;44634;54.110;12.138;2023-06-22T04:44:09;11.63;;;10.10;;
16480;SDS011;44634;54.110;12.138;2023-06-22T04:46:39;10.97;;;9.87;;
16480;SDS011;44634;54.110;12.138;2023-06-22T04:49:08;10.60;;;9.60;;
16480;SDS011;44634;54.110;12.138;2023-06-22T04:51:39;9.77;;;8.93;;
16480;SDS011;44634;54.110;12.138;2023-06-22T04:54:08;11.83;;;9.27;;
16480;SDS011;44634;54.110;12.138;2023-06-22T04:56:36;8.83;;;8.03;;
16480;SDS011;44634;54.110;12.138;2023-06-22T04:59:07;8.70;;;7.90;;
16480;SDS011;44634;54.110;12.138;2023-06-22T05:01:39;12.60;;;8.47;;
16480;SDS011;44634;54.110;12.138;2023-06-22T05:04:06;9.67;;;8.70;;
16480;SDS011;44634;54.110;12.138;2023-06-22T05:06:35;8.80;;;8.10;;
16480;SDS011;44634;54.110;12.138;2023-06-22T05:09:07;10.13;;;8.63;;
16480;SDS011;44634;54.110;12.138;2023-06-22T05:11:35;9.00;;;8.17;;
16480;SDS011;44634;54.110;12.138;2023-06-22T05:14:03;10.63;;;8.77;;
16480;SDS011;44634;54.110;12.138;2023-06-22T05:16:31;8.57;;;7.77;;
16480;SDS011;44634;54.110;12.138;2023-06-22T05:18:59;9.33;;;8.53;;
16480;SDS011;44634;54.110;12.138;2023-06-22T05:21:29;10.37;;;9.17;;
16480;SDS011;44634;54.110;12.138;2023-06-22T05:23:58;9.87;;;8.87;;
16480;SDS011;44634;54.110;12.138;2023-06-22T05:26:30;9.40;;;8.23;;
16480;SDS011;44634;54.110;12.138;2023-06-22T05:28:59;8.43;;;7.67;;
16480;SDS011;44634;54.110;12.138;2023-06-22T05:31:28;9.03;;;7.87;;
16480;SDS011;44634;54.110;12.138;2023-06-22T05:33:57;8.47;;;7.60;;
16480;SDS011;44634;54.110;12.138;2023-06-22T05:36:26;9.17;;;8.37;;
16480;SDS011;44634;54.110;12.138;2023-06-22T05:38:56;10.50;;;8.37;;
16480;SDS011;44634;54.110;12.138;2023-06-22T05:41:24;10.73;;;9.20;;
16480;SDS011;44634;54.110;12.138;2023-06-22T05:43:53;9.40;;;8.60;;
16480;SDS011;44634;54.110;12.138;2023-06-22T05:46:21;7.77;;;7.07;;
16480;SDS011;44634;54.110;12.138;2023-06-22T05:48:48;9.93;;;7.73;;
16480;SDS011;44634;54.110;12.138;2023-06-22T05:51:16;9.17;;;7.57;;
16480;SDS011;44634;54.110;12.138;2023-06-22T05:53:44;8.33;;;7.60;;
16480;SDS011;44634;54.110;12.138;2023-06-22T05:56:15;8.43;;;7.50;;
16480;SDS011;44634;54.110;12.138;2023-06-22T05:58:44;7.83;;;7.03;;
16480;SDS011;44634;54.110;12.138;2023-06-22T06:01:14;8.00;;;7.30;;
16480;SDS011;44634;54.110;12.138;2023-06-22T06:03:42;8.13;;;7.43;;
16480;SDS011;44634;54.110;12.138;2023-06-22T06:06:10;8.13;;;7.33;;
16480;SDS011;44634;54.110;12.138;2023-06-22T06:08:38;8.20;;;7.40;;
16480;SDS011;44634;54.110;12.138;2023-06-22T06:11:06;7.00;;;6.40;;
16480;SDS011;44634;54.110;12.138;2023-06-22T06:13:34;7.40;;;6.77;;
16480;SDS011;44634;54.110;12.138;2023-06-22T06:16:02;6.97;;;6.30;;
16480;SDS011;44634;54.110;12.138;2023-06-22T06:18:31;8.70;;;6.47;;
16480;SDS011;44634;54.110;12.138;2023-06-22T06:21:00;6.27;;;5.73;;
16480;SDS011;44634;54.110;12.138;2023-06-22T06:23:27;6.40;;;5.80;;
16480;SDS011;44634;54.110;12.138;2023-06-22T06:25:55;6.30;;;5.70;;
16480;SDS011;44634;54.110;12.138;2023-06-22T06:28:24;6.60;;;6.03;;
16480;SDS011;44634;54.110;12.138;2023-06-22T06:30:52;6.87;;;6.17;;
16480;SDS011;44634;54.110;12.138;2023-06-22T06:33:19;7.40;;;5.77;;
16480;SDS011;44634;54.110;12.138;2023-06-22T06:35:52;6.30;;;5.70;;
16480;SDS011;44634;54.110;12.138;2023-06-22T06:38:22;6.33;;;5.73;;
16480;SDS011;44634;54.110;12.138;2023-06-22T06:40:50;6.50;;;5.40;;
16480;SDS011;44634;54.110;12.138;2023-06-22T06:43:18;7.00;;;5.60;;
16480;SDS011;44634;54.110;12.138;2023-06-22T06:45:46;5.00;;;4.60;;
16480;SDS011;44634;54.110;12.138;2023-06-22T06:48:17;5.30;;;4.80;;
16480;SDS011;44634;54.110;12.138;2023-06-22T06:50:45;5.97;;;4.73;;
16480;SDS011;44634;54.110;12.138;2023-06-22T06:53:15;5.10;;;4.63;;
16480;SDS011;44634;54.110;12.138;2023-06-22T06:55:42;4.83;;;4.30;;
16480;SDS011;44634;54.110;12.138;2023-06-22T06:58:11;4.50;;;4.10;;
16480;SDS011;44634;54.110;12.138;2023-06-22T07:00:39;4.50;;;4.10;;
16480;SDS011;44634;54.110;12.138;2023-06-22T07:03:08;4.30;;;4.00;;
16480;SDS011;44634;54.110;12.138;2023-06-22T07:05:36;4.93;;;3.97;;
16480;SDS011;44634;54.110;12.138;2023-06-22T07:08:04;6.53;;;3.77;;
16480;SDS011;44634;54.110;12.138;2023-06-22T07:10:33;5.07;;;3.40;;
16480;SDS011;44634;54.110;12.138;2023-06-22T07:13:01;4.07;;;3.17;;
16480;SDS011;44634;54.110;12.138;2023-06-22T07:15:28;3.70;;;3.40;;
16480;SDS011;44634;54.110;12.138;2023-06-22T07:17:56;3.80;;;3.30;;
16480;SDS011;44634;54.110;12.138;2023-06-22T07:20:24;3.87;;;3.30;;
16480;SDS011;44634;54.110;12.138;2023-06-22T07:22:52;4.03;;;3.13;;
16480;SDS011;44634;54.110;12.138;2023-06-22T07:25:20;3.40;;;3.10;;
16480;SDS011;44634;54.110;12.138;2023-06-22T07:27:58;3.30;;;3.10;;
16480;SDS011;44634;54.110;12.138;2023-06-22T07:30:27;3.30;;;3.10;;
16480;SDS011;44634;54.110;12.138;2023-06-22T07:32:56;3.13;;;2.93;;
16480;SDS011;44634;54.110;12.138;2023-06-22T07:35:25;3.60;;;3.30;;
16480;SDS011;44634;54.110;12.138;2023-06-22T07:37:53;3.23;;;3.03;;
16480;SDS011;44634;54.110;12.138;2023-06-22T07:40:20;3.20;;;3.00;;
16480;SDS011;44634;54.110;12.138;2023-06-22T07:42:48;4.57;;;3.50;;
16480;SDS011;44634;54.110;12.138;2023-06-22T07:45:19;3.50;;;3.30;;
16480;SDS011;44634;54.110;12.138;2023-06-22T07:47:47;5.67;;;5.10;;
16480;SDS011;44634;54.110;12.138;2023-06-22T07:50:15;4.20;;;3.70;;
16480;SDS011;44634;54.110;12.138;2023-06-22T07:52:43;3.13;;;3.03;;
16480;SDS011;44634;54.110;12.138;2023-06-22T07:55:10;3.23;;;2.93;;
16480;SDS011;44634;54.110;12.138;2023-06-22T07:57:38;3.10;;;2.87;;
16480;SDS011;44634;54.110;12.138;2023-06-22T08:00:08;2.60;;;2.50;;
16480;SDS011;44634;54.110;12.138;2023-06-22T08:02:40;3.30;;;3.00;;
16480;SDS011;44634;54.110;12.138;2023-06-22T08:05:09;2.87;;;2.67;;
16480;SDS011;44634;54.110;12.138;2023-06-22T08:07:40;3.87;;;2.50;;
16480;SDS011;44634;54.110;12.138;2023-06-22T08:10:13;2.63;;;2.37;;
16480;SDS011;44634;54.110;12.138;2023-06-22T08:12:41;2.80;;;2.60;;
16480;SDS011;44634;54.110;12.138;2023-06-22T08:15:09;2.63;;;2.50;;
16480;SDS011;44634;54.110;12.138;2023-06-22T08:17:37;2.63;;;2.50;;
16480;SDS011;44634;54.110;12.138;2023-06-22T08:20:07;3.30;;;3.10;;
16480;SDS011;44634;54.110;12.138;2023-06-22T08:22:38;2.90;;;2.70;;
16480;SDS011;44634;54.110;12.138;2023-06-22T08:25:07;2.80;;;2.60;;
16480;SDS011;44634;54.110;12.138;2023-06-22T08:27:36;2.90;;;2.70;;
16480;SDS011;44634;54.110;12.138;2023-06-22T08:30:04;2.37;;;2.27;;
16480;SDS011;44634;54.110;12.138;2023-06-22T08:32:34;2.70;;;2.60;;
16480;SDS011;44634;54.110;12.138;2023-06-22T08:35:02;2.97;;;2.60;;
16480;SDS011;44634;54.110;12.138;2023-06-22T08:37:31;3.23;;;3.03;;
16480;SDS011;44634;54.110;12.138;2023-06-22T08:40:02;2.47;;;2.33;;
16480;SDS011;44634;54.110;12.138;2023-06-22T08:42:32;2.63;;;2.50;;
16480;SDS011;44634;54.110;12.138;2023-06-22T08:45:00;2.60;;;2.50;;
16480;SDS011;44634;54.110;12.138;2023-06-22T08:47:27;3.97;;;2.40;;
16480;SDS011;44634;54.110;12.138;2023-06-22T08:49:55;5.03;;;3.13;;
16480;SDS011;44634;54.110;12.138;2023-06-22T08:52:23;2.60;;;2.47;;
16480;SDS011;44634;54.110;12.138;2023-06-22T08:54:53;2.40;;;2.30;;
16480;SDS011;44634;54.110;12.138;2023-06-22T08:57:21;2.60;;;2.50;;
16480;SDS011;44634;54.110;12.138;2023-06-22T08:59:49;3.13;;;2.43;;
16480;SDS011;44634;54.110;12.138;2023-06-22T09:02:18;3.10;;;2.60;;
16480;SDS011;44634;54.110;12.138;2023-06-22T09:04:46;4.90;;;2.70;;
16480;SDS011;44634;54.110;12.138;2023-06-22T09:07:15;2.60;;;2.50;;
16480;SDS011;44634;54.110;12.138;2023-06-22T09:09:48;2.50;;;2.40;;
16480;SDS011;44634;54.110;12.138;2023-06-22T09:12:17;8.70;;;3.37;;
16480;SDS011;44634;54.110;12.138;2023-06-22T09:14:47;2.90;;;2.70;;
16480;SDS011;44634;54.110;12.138;2023-06-22T09:17:15;2.00;;;1.90;;
16480;SDS011;44634;54.110;12.138;2023-06-22T09:19:49;2.40;;;2.30;;
16480;SDS011;44634;54.110;12.138;2023-06-22T09:22:17;3.10;;;2.90;;
16480;SDS011;44634;54.110;12.138;2023-06-22T09:24:44;1.83;;;1.83;;
16480;SDS011;44634;54.110;12.138;2023-06-22T09:27:12;2.70;;;2.07;;
16480;SDS011;44634;54.110;12.138;2023-06-22T09:29:42;2.10;;;2.00;;
16480;SDS011;44634;54.110;12.138;2023-06-22T09:32:09;2.30;;;1.80;;
16480;SDS011;44634;54.110;12.138;2023-06-22T09:34:37;4.23;;;2.07;;
16480;SDS011;44634;54.110;12.138;2023-06-22T09:37:05;2.20;;;2.10;;
16480;SDS011;44634;54.110;12.138;2023-06-22T09:39:33;3.80;;;2.53;;
16480;SDS011;44634;54.110;12.138;2023-06-22T09:42:01;4.33;;;4.13;;
16480;SDS011;44634;54.110;12.138;2023-06-22T09:44:28;2.30;;;2.20;;
16480;SDS011;44634;54.110;12.138;2023-06-22T09:46:58;3.20;;;2.27;;
16480;SDS011;44634;54.110;12.138;2023-06-22T09:49:25;2.70;;;2.00;;
16480;SDS011;44634;54.110;12.138;2023-06-22T09:52:12;1.97;;;1.97;;
16480;SDS011;44634;54.110;12.138;2023-06-22T09:54:40;2.17;;;2.07;;
16480;SDS011;44634;54.110;12.138;2023-06-22T09:57:07;2.17;;;1.90;;
16480;SDS011;44634;54.110;12.138;2023-06-22T09:59:35;1.87;;;1.80;;
16480;SDS011;44634;54.110;12.138;2023-06-22T10:02:05;2.10;;;2.03;;
16480;SDS011;44634;54.110;12.138;2023-06-22T10:04:33;2.23;;;2.13;;
16480;SDS011;44634;54.110;12.138;2023-06-22T10:07:01;1.83;;;1.73;;
16480;SDS011;44634;54.110;12.138;2023-06-22T10:09:29;1.70;;;1.70;;
16480;SDS011;44634;54.110;12.138;2023-06-22T10:11:57;2.03;;;1.93;;
16480;SDS011;44634;54.110;12.138;2023-06-22T10:14:25;2.00;;;1.90;;
16480;SDS011;44634;54.110;12.138;2023-06-22T10:16:55;1.83;;;1.73;;
16480;SDS011;44634;54.110;12.138;2023-06-22T10:19:26;2.20;;;2.10;;
16480;SDS011;44634;54.110;12.138;2023-06-22T10:21:54;2.00;;;1.90;;
16480;SDS011;44634;54.110;12.138;2023-06-22T10:24:22;1.93;;;1.93;;
16480;SDS011;44634;54.110;12.138;2023-06-22T10:26:50;2.20;;;2.10;;
16480;SDS011;44634;54.110;12.138;2023-06-22T10:29:18;1.87;;;1.77;;
16480;SDS011;44634;54.110;12.138;2023-06-22T10:31:45;2.03;;;1.93;;
16480;SDS011;44634;54.110;12.138;2023-06-22T10:34:13;5.40;;;4.50;;
16480;SDS011;44634;54.110;12.138;2023-06-22T10:36:42;2.50;;;2.30;;
16480;SDS011;44634;54.110;12.138;2023-06-22T10:39:13;2.53;;;2.00;;
16480;SDS011;44634;54.110;12.138;2023-06-22T10:41:41;2.33;;;2.23;;
16480;SDS011;44634;54.110;12.138;2023-06-22T10:44:09;8.47;;;4.80;;
16480;SDS011;44634;54.110;12.138;2023-06-22T10:46:37;2.53;;;2.37;;
16480;SDS011;44634;54.110;12.138;2023-06-22T10:49:05;8.40;;;3.93;;
16480;SDS011;44634;54.110;12.138;2023-06-22T10:51:32;2.60;;;2.40;;
16480;SDS011;44634;54.110;12.138;2023-06-22T10:54:02;2.23;;;2.10;;
16480;SDS011;44634;54.110;12.138;2023-06-22T10:56:30;2.83;;;2.00;;
16480;SDS011;44634;54.110;12.138;2023-06-22T10:59:00;1.93;;;1.93;;
16480;SDS011;44634;54.110;12.138;2023-06-22T11:01:28;2.37;;;2.27;;
16480;SDS011;44634;54.110;12.138;2023-06-22T11:04:02;2.10;;;2.00;;
16480;SDS011;44634;54.110;12.138;2023-06-22T11:06:31;1.90;;;1.80;;
16480;SDS011;44634;54.110;12.138;2023-06-22T11:08:58;3.13;;;2.10;;
16480;SDS011;44634;54.110;12.138;2023-06-22T11:11:30;2.30;;;2.10;;
16480;SDS011;44634;54.110;12.138;2023-06-22T11:13:58;2.70;;;2.10;;
16480;SDS011;44634;54.110;12.138;2023-06-22T11:16:26;2.10;;;2.00;;
16480;SDS011;44634;54.110;12.138;2023-06-22T11:18:55;2.40;;;2.30;;
16480;SDS011;44634;54.110;12.138;2023-06-22T11:21:22;1.80;;;1.80;;
16480;SDS011;44634;54.110;12.138;2023-06-22T11:23:50;2.23;;;2.03;;
16480;SDS011;44634;54.110;12.138;2023-06-22T11:26:18;3.60;;;2.30;;
16480;SDS011;44634;54.110;12.138;2023-06-22T11:28:48;2.10;;;1.90;;
16480;SDS011;44634;54.110;12.138;2023-06-22T11:31:16;2.13;;;1.80;;
16480;SDS011;44634;54.110;12.138;2023-06-22T11:33:51;1.90;;;1.80;;
16480;SDS011;44634;54.110;12.138;2023-06-22T11:36:19;2.10;;;2.00;;
16480;SDS011;44634;54.110;12.138;2023-06-22T11:38:47;2.00;;;2.00;;
16480;SDS011;44634;54.110;12.138;2023-06-22T11:41:15;2.03;;;1.93;;
16480;SDS011;44634;54.110;12.138;2023-06-22T11:43:43;2.20;;;2.10;;
16480;SDS011;44634;54.110;12.138;2023-06-22T11:46:12;5.53;;;2.30;;
16480;SDS011;44634;54.110;12.138;2023-06-22T11:48:40;7.10;;;6.43;;
16480;SDS011;44634;54.110;12.138;2023-06-22T11:51:08;16.43;;;13.57;;
16480;SDS011;44634;54.110;12.138;2023-06-22T11:53:36;45.03;;;38.60;;
16480;SDS011;44634;54.110;12.138;2023-06-22T11:56:04;4.83;;;3.77;;
16480;SDS011;44634;54.110;12.138;2023-06-22T11:58:33;2.70;;;2.33;;
16480;SDS011;44634;54.110;12.138;2023-06-22T12:01:01;2.17;;;1.97;;
16480;SDS011;44634;54.110;12.138;2023-06-22T12:03:30;2.17;;;1.97;;
16480;SDS011;44634;54.110;12.138;2023-06-22T12:05:59;1.77;;;1.67;;
16480;SDS011;44634;54.110;12.138;2023-06-22T12:08:27;2.63;;;2.27;;
16480;SDS011;44634;54.110;12.138;2023-06-22T12:10:55;1.90;;;1.80;;
16480;SDS011;44634;54.110;12.138;2023-06-22T12:13:22;2.00;;;1.90;;
16480;SDS011;44634;54.110;12.138;2023-06-22T12:15:50;2.97;;;2.07;;
16480;SDS011;44634;54.110;12.138;2023-06-22T12:18:18;2.50;;;2.07;;
16480;SDS011;44634;54.110;12.138;2023-06-22T12:20:49;2.20;;;2.10;;
16480;SDS011;44634;54.110;12.138;2023-06-22T12:23:17;1.93;;;1.70;;
16480;SDS011;44634;54.110;12.138;2023-06-22T12:25:46;1.80;;;1.70;;
16480;SDS011;44634;54.110;12.138;2023-06-22T12:28:13;1.87;;;1.87;;
16480;SDS011;44634;54.110;12.138;2023-06-22T12:30:41;1.67;;;1.53;;
16480;SDS011;44634;54.110;12.138;2023-06-22T12:33:09;1.83;;;1.70;;
16480;SDS011;44634;54.110;12.138;2023-06-22T12:35:37;9.80;;;1.90;;
16480;SDS011;44634;54.110;12.138;2023-06-22T12:38:06;1.70;;;1.60;;
16480;SDS011;44634;54.110;12.138;2023-06-22T12:40:35;1.80;;;1.70;;
16480;SDS011;44634;54.110;12.138;2023-06-22T12:43:03;1.90;;;1.80;;
16480;SDS011;44634;54.110;12.138;2023-06-22T12:45:31;1.90;;;1.80;;
16480;SDS011;44634;54.110;12.138;2023-06-22T12:48:00;2.03;;;1.93;;
16480;SDS011;44634;54.110;12.138;2023-06-22T12:50:28;2.13;;;2.03;;
16480;SDS011;44634;54.110;12.138;2023-06-22T12:52:56;2.23;;;2.13;;
16480;SDS011;44634;54.110;12.138;2023-06-22T12:55:25;1.90;;;1.80;;
16480;SDS011;44634;54.110;12.138;2023-06-22T12:57:53;1.90;;;1.80;;
16480;SDS011;44634;54.110;12.138;2023-06-22T13:00:21;2.43;;;2.03;;
16480;SDS011;44634;54.110;12.138;2023-06-22T13:02:49;4.33;;;1.67;;
16480;SDS011;44634;54.110;12.138;2023-06-22T13:05:19;2.43;;;2.13;;
16480;SDS011;44634;54.110;12.138;2023-06-22T13:07:48;2.00;;;1.90;;
16480;SDS011;44634;54.110;12.138;2023-06-22T13:10:15;2.43;;;1.73;;
16480;SDS011;44634;54.110;12.138;2023-06-22T13:12:45;2.67;;;1.90;;
16480;SDS011;44634;54.110;12.138;2023-06-22T13:15:12;2.20;;;1.70;;
16480;SDS011;44634;54.110;12.138;2023-06-22T13:17:40;2.27;;;2.07;;
16480;SDS011;44634;54.110;12.138;2023-06-22T13:20:08;2.10;;;2.00;;
16480;SDS011;44634;54.110;12.138;2023-06-22T13:22:37;4.00;;;2.20;;
16480;SDS011;44634;54.110;12.138;2023-06-22T13:25:08;2.10;;;2.00;;
16480;SDS011;44634;54.110;12.138;2023-06-22T13:27:39;2.63;;;1.80;;
16480;SDS011;44634;54.110;12.138;2023-06-22T13:30:08;1.97;;;1.80;;
16480;SDS011;44634;54.110;12.138;2023-06-22T13:32:40;2.30;;;2.10;;
16480;SDS011;44634;54.110;12.138;2023-06-22T13:35:09;1.80;;;1.70;;
16480;SDS011;44634;54.110;12.138;2023-06-22T13:37:37;2.00;;;1.97;;
16480;SDS011;44634;54.110;12.138;2023-06-22T13:40:06;2.20;;;1.60;;
16480;SDS011;44634;54.110;12.138;2023-06-22T13:42:35;1.57;;;1.50;;
16480;SDS011;44634;54.110;12.138;2023-06-22T13:45:03;1.87;;;1.73;;
16480;SDS011;44634;54.110;12.138;2023-06-22T13:47:33;1.67;;;1.60;;
16480;SDS011;44634;54.110;12.138;2023-06-22T13:50:01;1.97;;;1.73;;
16480;SDS011;44634;54.110;12.138;2023-06-22T13:52:28;1.80;;;1.70;;
16480;SDS011;44634;54.110;12.138;2023-06-22T13:54:56;2.07;;;1.77;;
16480;SDS011;44634;54.110;12.138;2023-06-22T13:57:24;1.70;;;1.60;;
16480;SDS011;44634;54.110;12.138;2023-06-22T13:59:52;1.67;;;1.53;;
16480;SDS011;44634;54.110;12.138;2023-06-22T14:02:20;1.53;;;1.53;;
16480;SDS011;44634;54.110;12.138;2023-06-22T14:04:49;2.20;;;1.60;;
16480;SDS011;44634;54.110;12.138;2023-06-22T14:07:17;1.60;;;1.50;;
16480;SDS011;44634;54.110;12.138;2023-06-22T14:09:47;1.80;;;1.70;;
16480;SDS011;44634;54.110;12.138;2023-06-22T14:12:17;1.57;;;1.50;;
16480;SDS011;44634;54.110;12.138;2023-06-22T14:14:45;1.90;;;1.70;;
16480;SDS011;44634;54.110;12.138;2023-06-22T14:17:13;1.70;;;1.60;;
16480;SDS011;44634;54.110;12.138;2023-06-22T14:19:40;1.40;;;1.40;;
16480;SDS011;44634;54.110;12.138;2023-06-22T14:22:10;1.70;;;1.60;;
16480;SDS011;44634;54.110;12.138;2023-06-22T14:24:37;1.47;;;1.33;;
16480;SDS011;44634;54.110;12.138;2023-06-22T14:27:05;1.37;;;1.27;;
16480;SDS011;44634;54.110;12.138;2023-06-22T14:29:34;1.30;;;1.30;;
16480;SDS011;44634;54.110;12.138;2023-06-22T14:32:03;1.57;;;1.43;;
16480;SDS011;44634;54.110;12.138;2023-06-22T14:34:32;1.67;;;1.57;;
16480;SDS011;44634;54.110;12.138;2023-06-22T14:37:02;1.30;;;1.30;;
16480;SDS011;44634;54.110;12.138;2023-06-22T14:39:31;2.13;;;1.30;;
16480;SDS011;44634;54.110;12.138;2023-06-22T14:41:59;2.23;;;1.40;;